METAR Data
IDs: Format: Raw Decoded Include TAF

Data at: 0111 UTC 25 Mar 2019

KCIN 250055Z AUTO 02009KT 3SM BR OVC008 07/07 A3010 RMK AO2
KCIN 250035Z AUTO 01006KT 5SM BR BKN010 OVC013 07/07 A3010 RMK AO2
KCIN 250015Z AUTO 01006KT 5SM BR OVC013 07/07 A3009 RMK AO2
KCIN 242355Z AUTO 01007KT 4SM BR FEW005 BKN010 OVC020 07/07 A3008 RMK AO2
KCIN 242335Z AUTO 03007KT 3SM BR BKN005 OVC010 07/07 A3008 RMK AO2
KCIN 242315Z AUTO 04010KT 3SM BR OVC006 07/07 A3007 RMK AO2
KCIN 242255Z AUTO 03010KT 3SM BR OVC006 07/07 A3007 RMK AO2
KCIN 242235Z AUTO 02007KT 3SM BR OVC005 07/07 A3006 RMK AO2
KCIN 242215Z AUTO 04009KT 3SM BR OVC005 07/07 A3005 RMK AO2
KCIN 242155Z AUTO 03009KT OVC004 07/07 A3005 RMK AO2
KCIN 242135Z AUTO 03010KT 4SM BR OVC005 07/07 A3004 RMK AO2
KCIN 242115Z AUTO 04011KT 5SM BR OVC005 07/07 A3004 RMK AO2
KCIN 242055Z AUTO 05010KT 4SM BR OVC004 07/07 A3003 RMK AO2
KCIN 242035Z AUTO 03011KT 1 1/2SM BR OVC003 07/07 A3002 RMK AO2
KCIN 242015Z AUTO 03012KT 1SM BR OVC003 06/06 A3002 RMK AO2
KCIN 241955Z AUTO 02016KT 1/2SM FG OVC003 06/06 A3002 RMK AO2
KCIN 241935Z AUTO 01016KT 1/2SM -UP OVC003 06/06 A3001 RMK AO2
KCIN 241915Z AUTO 02012KT 1/4SM FG OVC003 07/07 A3001 RMK AO2
KCIN 241855Z AUTO 03010KT 1/4SM FG OVC003 07/07 A3001 RMK AO2
KCIN 241835Z AUTO 03008KT 1/4SM FG OVC003 07/07 A3000 RMK AO2
KCIN 241815Z AUTO 05009KT M1/4SM FG OVC003 06/06 A3000 RMK AO2
KCIN 241755Z AUTO 04008KT 1/4SM FG OVC003 06/06 A3001 RMK AO2
KCIN 241735Z AUTO 04008KT 1/4SM FG OVC003 06/06 A3001 RMK AO2
KCIN 241715Z AUTO 04010KT 1/2SM BR OVC003 06/06 A3001 RMK AO2
KCIN 241655Z AUTO 05008KT 1 1/4SM BR OVC003 06/06 A3001 RMK AO2
KCIN 241635Z AUTO 02008KT 2SM BR OVC003 06/06 A3001 RMK AO2
KCIN 241615Z AUTO 04006KT 2SM BR OVC003 06/06 A3001 RMK AO2
KCIN 241555Z AUTO 05004KT 1 1/2SM BR OVC003 06/06 A3000 RMK AO2
KCIN 241535Z AUTO 07008KT 1SM BR OVC003 06/06 A3000 RMK AO2
KCIN 241515Z AUTO 04007KT 1/4SM FG OVC003 05/05 A2999 RMK AO2
KCIN 241455Z AUTO 05006KT 1SM BR OVC003 05/05 A2999 RMK AO2
KCIN 241435Z AUTO 05005KT 1SM BR OVC003 05/05 A3000 RMK AO2
KCIN 241415Z AUTO 04010KT 3/4SM BR OVC003 05/05 A2999 RMK AO2
KCIN 241355Z AUTO 03008KT 1SM BR OVC003 05/05 A2999 RMK AO2
KCIN 241335Z AUTO 02008KT 1 1/4SM BR OVC002 05/05 A2999 RMK AO2
KCIN 241315Z AUTO 02006KT 1 1/4SM BR OVC002 05/05 A2999 RMK AO2
KCIN 241255Z AUTO 03004KT 1SM BR OVC002 05/05 A2998 RMK AO2
KCIN 241235Z AUTO 00000KT 2SM BR OVC003 05/05 A2998 RMK AO2
KCIN 241215Z AUTO 05004KT 2SM BR OVC003 05/05 A2997 RMK AO2
KCIN 241155Z AUTO 05007KT 2SM BR OVC003 05/05 A2997 RMK AO2
KCIN 241135Z AUTO 05005KT 1 1/2SM -RA OVC003 05/05 A2997 RMK AO2
KCIN 241115Z AUTO 04004KT 1SM -RA OVC003 05/05 A2997 RMK AO2
KCIN 241055Z AUTO 05004KT 1 1/4SM BR OVC003 05/05 A2997 RMK AO2 P0001
KCIN 241035Z AUTO 06005KT 1 3/4SM -RA OVC004 05/05 A2997 RMK AO2
KCIN 241015Z AUTO 09005KT 1 3/4SM -UP OVC004 05/05 A2997 RMK AO2
KCIN 240955Z AUTO 08004KT 2 1/2SM BR OVC006 05/05 A2997 RMK AO2
KCIN 240935Z AUTO 09004KT 4SM BR OVC006 06/06 A2997 RMK AO2
KCIN 240915Z AUTO 11003KT 9SM OVC008 06/05 A2997 RMK AO2
KCIN 240855Z AUTO 00000KT 10SM OVC011 06/05 A2998 RMK AO2
KCIN 240835Z AUTO 13003KT 10SM OVC011 06/05 A2999 RMK AO2
KCIN 240815Z AUTO 00000KT 10SM OVC012 06/05 A2999 RMK AO2
KCIN 240755Z AUTO 11004KT 10SM BKN013 OVC029 06/05 A3000 RMK AO2
KCIN 240735Z AUTO 12005KT 10SM BKN016 OVC029 06/05 A3000 RMK AO2
KCIN 240715Z AUTO 11004KT 10SM BKN017 OVC024 06/05 A3000 RMK AO2
KCIN 240655Z AUTO 00000KT 10SM OVC022 06/05 A3000 RMK AO2
KCIN 240635Z AUTO 11003KT 10SM OVC024 06/05 A3001 RMK AO2
KCIN 240615Z AUTO 10005KT 10SM OVC025 06/05 A3000 RMK AO2
KCIN 240555Z AUTO 10004KT 10SM OVC027 06/05 A3001 RMK AO2
KCIN 240535Z AUTO 00000KT 10SM OVC028 06/05 A3001 RMK AO2
KCIN 240515Z AUTO 09005KT 10SM OVC030 06/06 A3002 RMK AO2
KCIN 240455Z AUTO 11004KT 10SM OVC032 06/06 A3002 RMK AO2
KCIN 240435Z AUTO 11006KT 10SM OVC032 06/06 A3002 RMK AO2
KCIN 240415Z AUTO 12007KT 10SM OVC032 06/06 A3003 RMK AO2
KCIN 240355Z AUTO 13006KT 10SM OVC033 06/06 A3004 RMK AO2
KCIN 240335Z AUTO 13008KT 10SM OVC036 07/05 A3004 RMK AO2
KCIN 240315Z AUTO 13008KT 10SM OVC036 07/05 A3005 RMK AO2
KCIN 240255Z AUTO 13008KT OVC037 07/05 A3005 RMK AO2
KCIN 240235Z AUTO 11010KT 10SM OVC037 07/04 A3004 RMK AO2
KCIN 240215Z AUTO 13009KT 10SM BKN041 OVC048 07/04 A3004 RMK AO2
KCIN 240155Z AUTO 12008KT 10SM OVC048 07/05 A3004 RMK AO2
KCIN 240135Z AUTO 11008KT 10SM BKN050 OVC060 07/05 A3004 RMK AO2
KCIN 240115Z AUTO 10008KT 10SM OVC060 07/05 A3004 RMK AO2
KCIN 240055Z AUTO 10007KT 10SM OVC065 07/05 A3005 RMK AO2
KCIN 240035Z AUTO 09007KT 10SM FEW050 OVC070 07/05 A3005 RMK AO2
KCIN 240015Z AUTO 12005KT 10SM FEW055 OVC070 08/05 A3006 RMK AO2
KCIN 232355Z AUTO 11005KT 10SM OVC065 08/05 A3007 RMK AO2
KCIN 232335Z AUTO 11006KT 10SM BKN060 OVC070 09/05 A3007 RMK AO2
KCIN 232315Z AUTO 10006KT 10SM OVC065 09/05 A3006 RMK AO2
KCIN 232255Z AUTO 10007KT 10SM BKN060 OVC070 09/04 A3006 RMK AO2
KCIN 232235Z AUTO 11009KT 10SM SCT055 SCT065 09/04 A3007 RMK AO2
KCIN 232215Z AUTO 11009KT 10SM CLR 10/05 A3007 RMK AO2
KCIN 232155Z AUTO 12008KT 10SM CLR 10/05 A3007 RMK AO2
KCIN 232135Z AUTO 09008KT 10SM FEW050 FEW065 10/05 A3007 RMK AO2
KCIN 232115Z AUTO 09010KT 10SM FEW034 FEW049 SCT065 10/05 A3007 RMK AO2
KCIN 232055Z AUTO 11009KT 9SM FEW027 FEW034 BKN050 09/05 A3009 RMK AO2
KCIN 232035Z AUTO 12009KT 10SM SCT090 10/04 A3009 RMK AO2
KCIN 232015Z AUTO 12010KT 10SM FEW050 SCT080 BKN100 10/04 A3009 RMK AO2
KCIN 231955Z AUTO 11010KT 9SM SCT050 BKN065 BKN080 10/04 A3009 RMK AO2
KCIN 231935Z AUTO 12011KT 10SM SCT060 BKN075 11/04 A3010 RMK AO2
KCIN 231915Z AUTO 11009KT 10SM FEW055 BKN070 BKN085 10/04 A3011 RMK AO2
KCIN 231855Z AUTO 13009KT 10SM BKN075 OVC085 10/03 A3012 RMK AO2
KCIN 231835Z AUTO 14010KT 10SM OVC085 10/03 A3013 RMK AO2
KCIN 231815Z AUTO 14009KT 10SM SCT095 11/03 A3014 RMK AO2
KCIN 231755Z AUTO 14013KT 10SM CLR 10/03 A3014 RMK AO2
KCIN 231735Z AUTO 15012KT 10SM CLR 11/03 A3015 RMK AO2
KCIN 231715Z AUTO 15011KT 10SM CLR 10/04 A3015 RMK AO2
KCIN 231655Z AUTO 14011KT 10SM CLR 10/04 A3016 RMK AO2
KCIN 231635Z AUTO 13011KT 10SM CLR 09/04 A3016 RMK AO2
KCIN 231615Z AUTO 13008KT 10SM CLR 07/04 A3016 RMK AO2
KCIN 231555Z AUTO 14009KT 10SM CLR 06/03 A3017 RMK AO2
KCIN 231535Z AUTO 13007KT 10SM CLR 05/02 A3018 RMK AO2
KCIN 231515Z AUTO 13010KT 10SM CLR 04/02 A3018 RMK AO2
KCIN 231455Z AUTO 13009KT 10SM CLR 03/02 A3018 RMK AO2
KCIN 231435Z AUTO 12009KT 10SM CLR 02/02 A3017 RMK AO2
KCIN 231415Z AUTO 12009KT 10SM CLR 02/01 A3017 RMK AO2
KCIN 231355Z AUTO 14004KT 10SM CLR 01/01 A3019 RMK AO2
KCIN 231335Z AUTO 11006KT 10SM CLR 01/00 A3019 RMK AO2
KCIN 231315Z AUTO 11005KT 10SM CLR 00/00 A3018 RMK AO2